Time;durP1;ratioP1;P1;durP2;ratioP2;P2;SDS_P1;SDS_P2;PMS_P1;PMS_P2;Temp;Humidity;BMP_temperature;BMP_pressure;BME280_temperature;BME280_humidity;BME280_pressure;Samples;Min_cycle;Max_cycle;Signal;HPM_P1;HPM_P2
2023/10/07 00:00:26;;;;;;;16.73;9.25;;;;;;;12.35;76.49;101444.97;4212986;28;20044;-67
2023/10/07 00:02:32;;;;;;;19.00;9.57;;;;;;;12.32;76.33;101443.16;4209903;28;20071;-67
2023/10/07 00:04:38;;;;;;;19.50;11.63;;;;;;;12.34;76.03;101448.44;4212600;28;20050;-67
2023/10/07 00:06:45;;;;;;;18.15;9.88;;;;;;;12.33;76.17;101457.09;4211478;28;20048;-67
2023/10/07 00:08:50;;;;;;;16.23;8.88;;;;;;;12.33;76.03;101449.28;4212607;28;20050;-68
2023/10/07 00:10:58;;;;;;;17.83;9.45;;;;;;;12.30;76.23;101450.09;4212784;28;20387;-67
2023/10/07 00:13:04;;;;;;;22.33;10.18;;;;;;;12.31;75.91;101456.16;4212819;28;20442;-67
2023/10/07 00:15:11;;;;;;;16.83;10.23;;;;;;;12.31;75.91;101457.06;4212872;28;20490;-66
2023/10/07 00:17:17;;;;;;;18.48;10.10;;;;;;;12.29;75.88;101458.72;4210317;28;20441;-67
2023/10/07 00:19:21;;;;;;;17.70;10.20;;;;;;;12.27;75.69;101457.84;4210515;28;20558;-67
2023/10/07 00:21:26;;;;;;;17.08;9.38;;;;;;;12.22;75.19;101456.81;4210483;28;20105;-67
2023/10/07 00:23:29;;;;;;;19.90;10.52;;;;;;;12.18;75.32;101448.06;4213235;28;20044;-66
2023/10/07 00:25:33;;;;;;;19.55;9.57;;;;;;;12.15;75.32;101442.78;4208477;28;20067;-67
2023/10/07 00:27:38;;;;;;;19.25;10.23;;;;;;;12.13;75.28;101435.78;4212426;28;20505;-67
2023/10/07 00:29:53;;;;;;;20.75;10.02;;;;;;;12.11;75.22;101440.94;4211542;28;20044;-66
2023/10/07 00:31:56;;;;;;;20.85;10.25;;;;;;;12.04;75.43;101442.50;4211924;28;20060;-66
2023/10/07 00:34:02;;;;;;;20.17;10.85;;;;;;;12.05;76.26;101439.06;4211590;28;20490;-67
2023/10/07 00:36:06;;;;;;;23.10;10.60;;;;;;;12.08;76.50;101438.28;4208537;28;20036;-67
2023/10/07 00:38:14;;;;;;;15.40;9.50;;;;;;;12.07;76.11;101441.72;4210893;28;20036;-67
2023/10/07 00:40:30;;;;;;;21.13;10.55;;;;;;;12.09;76.38;101426.09;4205210;28;20056;-67
2023/10/07 00:42:34;;;;;;;17.77;9.45;;;;;;;12.05;76.11;101433.88;4208053;28;20098;-66
2023/10/07 00:44:39;;;;;;;16.63;8.68;;;;;;;12.05;76.02;101433.00;4211552;28;20119;-66
2023/10/07 00:46:42;;;;;;;19.77;10.55;;;;;;;12.07;76.43;101439.09;4209821;28;20063;-66
2023/10/07 00:48:47;;;;;;;18.58;11.23;;;;;;;12.09;76.29;101428.72;4211290;28;20067;-67
2023/10/07 00:50:50;;;;;;;20.27;10.43;;;;;;;12.09;76.45;101429.63;4210894;28;20131;-66
2023/10/07 00:52:57;;;;;;;19.60;10.50;;;;;;;12.11;75.75;101427.91;4211430;28;20035;-67
2023/10/07 00:55:17;;;;;;;20.40;10.63;;;;;;;12.13;75.88;101436.63;4212540;28;20421;-67
2023/10/07 00:57:34;;;;;;;19.80;10.77;;;;;;;12.09;75.72;101440.03;4213888;28;20402;-67
2023/10/07 00:59:40;;;;;;;18.67;10.18;;;;;;;12.09;76.19;101429.63;4214586;28;20498;-66
2023/10/07 01:01:47;;;;;;;18.92;9.07;;;;;;;12.09;76.20;101427.00;4214138;28;20111;-66
2023/10/07 01:03:51;;;;;;;18.48;9.02;;;;;;;12.09;76.27;101423.50;4214400;28;20060;-67
2023/10/07 01:06:09;;;;;;;24.08;11.27;;;;;;;12.09;76.09;101428.72;4215656;28;20046;-67
2023/10/07 01:08:12;;;;;;;19.10;10.18;;;;;;;12.07;76.16;101420.00;4214194;28;20040;-67
2023/10/07 01:10:15;;;;;;;17.65;10.10;;;;;;;12.04;75.78;101419.06;4215122;28;20043;-67
2023/10/07 01:12:25;;;;;;;17.88;9.15;;;;;;;12.05;76.02;101419.97;4214311;28;20044;-67
2023/10/07 01:14:33;;;;;;;19.58;11.32;;;;;;;12.01;75.49;101416.38;4210829;28;20102;-67
2023/10/07 01:16:42;;;;;;;19.80;10.80;;;;;;;11.98;75.77;101426.75;4215239;28;20032;-67
2023/10/07 01:18:45;;;;;;;21.88;11.70;;;;;;;11.95;76.14;101428.41;4213872;28;20036;-67
2023/10/07 01:21:00;;;;;;;20.13;10.90;;;;;;;11.94;76.04;101424.03;4214090;28;20028;-66
2023/10/07 01:23:07;;;;;;;;;;;;;;;11.80;75.68;101431.50;4214792;28;20044;-67
2023/10/07 01:25:17;;;;;;;21.73;11.15;;;;;;;11.81;76.20;101431.53;4214132;28;20327;-67
2023/10/07 01:27:29;;;;;;;17.42;10.15;;;;;;;11.73;76.17;101435.66;4213785;28;20043;-67
2023/10/07 01:29:34;;;;;;;22.20;11.30;;;;;;;11.71;76.03;101434.75;4213813;28;20035;-66
2023/10/07 01:31:41;;;;;;;20.52;10.27;;;;;;;11.72;76.67;101431.28;4215771;28;20047;-68
2023/10/07 01:33:47;;;;;;;21.00;10.70;;;;;;;11.73;76.13;101424.38;4213725;28;20032;-67
2023/10/07 01:36:07;;;;;;;20.45;10.45;;;;;;;11.74;76.08;101424.41;4214102;28;20131;-67
2023/10/07 01:38:18;;;;;;;19.15;10.27;;;;;;;11.72;76.85;101417.38;4213890;28;20516;-67
2023/10/07 01:40:27;;;;;;;19.88;10.73;;;;;;;11.70;76.85;101415.59;4213683;28;20060;-67
2023/10/07 01:42:37;;;;;;;19.45;9.95;;;;;;;11.73;76.35;101400.91;4213806;28;20123;-66
2023/10/07 01:44:41;;;;;;;20.30;10.75;;;;;;;11.75;76.53;101401.81;4213857;28;20040;-66
2023/10/07 01:46:45;;;;;;;19.27;10.50;;;;;;;11.74;76.71;101408.78;4214044;28;20044;-66
2023/10/07 01:48:55;;;;;;;20.23;11.15;;;;;;;11.76;76.30;101414.00;4213636;28;20067;-66
2023/10/07 01:51:01;;;;;;;22.17;11.00;;;;;;;11.74;76.71;101421.78;4209395;28;20024;-67
2023/10/07 01:53:04;;;;;;;20.08;10.73;;;;;;;11.75;76.88;101422.66;4209811;28;20119;-66
2023/10/07 01:55:11;;;;;;;22.15;11.55;;;;;;;11.74;76.73;101418.28;4214910;28;20048;-66
2023/10/07 01:57:15;;;;;;;19.08;11.07;;;;;;;11.70;76.79;101414.75;4213350;28;20044;-66
2023/10/07 01:59:19;;;;;;;22.67;11.25;;;;;;;11.68;76.54;101427.72;4213598;28;20047;-66
2023/10/07 02:01:22;;;;;;;18.55;9.90;;;;;;;11.71;76.59;101432.13;4209832;28;20032;-67
2023/10/07 02:03:26;;;;;;;22.02;11.40;;;;;;;11.72;76.18;101433.88;4211059;28;20117;-66
2023/10/07 02:05:35;;;;;;;15.95;9.65;;;;;;;11.69;75.97;101433.81;4213337;28;20123;-67
2023/10/07 02:07:39;;;;;;;18.40;10.55;;;;;;;11.68;75.67;101432.03;4212660;28;20040;-67
2023/10/07 02:09:42;;;;;;;16.27;10.48;;;;;;;11.66;76.05;101425.91;4214612;28;20493;-66
2023/10/07 02:11:48;;;;;;;21.45;11.55;;;;;;;11.62;75.79;101427.59;4213530;28;20115;-67
2023/10/07 02:13:51;;;;;;;17.75;9.80;;;;;;;11.56;75.86;101429.13;4212391;28;20300;-67
2023/10/07 02:15:55;;;;;;;21.13;10.88;;;;;;;11.51;76.17;101432.50;4213616;28;20059;-68
2023/10/07 02:17:58;;;;;;;20.48;10.98;;;;;;;11.52;76.71;101420.34;4212957;28;20044;-67
2023/10/07 02:20:21;;;;;;;17.42;9.45;;;;;;;11.57;76.35;101425.69;4196721;28;20048;-67
2023/10/07 02:22:28;;;;;;;19.15;10.35;;;;;;;11.57;76.76;101426.56;4213384;28;20455;-67
2023/10/07 02:24:32;;;;;;;17.90;10.02;;;;;;;11.57;76.34;101429.16;4213271;28;20044;-67
2023/10/07 02:26:34;;;;;;;19.05;10.43;;;;;;;11.58;75.99;101430.03;4196383;28;20078;-67
2023/10/07 02:28:39;;;;;;;24.25;11.18;;;;;;;11.57;75.37;101430.91;4213027;28;20047;-66
2023/10/07 02:30:51;;;;;;;20.27;10.55;;;;;;;11.51;76.11;101435.09;4213102;28;20040;-66
2023/10/07 02:32:54;;;;;;;17.83;9.48;;;;;;;11.46;75.69;101439.31;4212988;28;20024;-67
2023/10/07 02:35:00;;;;;;;20.17;11.07;;;;;;;11.44;75.82;101440.97;4212948;28;20036;-67
2023/10/07 02:37:12;;;;;;;17.63;10.60;;;;;;;11.45;76.46;101441.88;4212797;28;20567;-67
2023/10/07 02:40:19;;;;;;;18.83;10.27;;;;;;;11.42;76.12;101439.16;4214511;28;20500;-67
2023/10/07 02:42:23;;;;;;;20.30;10.15;;;;;;;11.39;76.77;101432.19;4192655;28;20141;-66
2023/10/07 02:44:29;;;;;;;19.90;10.23;;;;;;;11.40;76.20;101433.94;4212836;28;20040;-66
2023/10/07 02:46:33;;;;;;;18.80;11.07;;;;;;;11.39;77.09;101440.00;4212758;28;20062;-66
2023/10/07 02:48:38;;;;;;;18.43;10.17;;;;;;;11.37;76.89;101446.88;4211385;28;20043;-67
2023/10/07 02:50:42;;;;;;;16.98;10.10;;;;;;;11.38;77.04;101443.44;4213048;28;20286;-67
2023/10/07 02:52:46;;;;;;;19.80;9.75;;;;;;;11.38;76.91;101439.97;4213764;28;20085;-67
2023/10/07 02:55:12;;;;;;;18.00;9.35;;;;;;;11.38;77.21;101435.63;4213918;28;20470;-67
2023/10/07 02:57:24;;;;;;;20.42;11.10;;;;;;;11.35;76.59;101427.72;4209064;28;20509;-68
2023/10/07 02:59:31;;;;;;;16.33;9.68;;;;;;;11.30;76.87;101439.72;4209650;28;20063;-66
2023/10/07 03:01:37;;;;;;;19.77;10.50;;;;;;;11.28;77.31;101442.28;4212463;28;20040;-66
2023/10/07 03:03:41;;;;;;;18.05;9.85;;;;;;;11.31;77.17;101451.91;4224858;28;20503;-67
2023/10/07 03:05:45;;;;;;;21.27;10.82;;;;;;;11.31;77.11;101449.31;4211160;28;20055;-66
2023/10/07 03:07:50;;;;;;;19.63;10.10;;;;;;;11.30;77.00;101452.75;4211996;28;20064;-66
2023/10/07 03:10:04;;;;;;;19.73;10.07;;;;;;;11.31;77.29;101452.78;4210137;28;20135;-67
2023/10/07 03:12:12;;;;;;;18.13;10.25;;;;;;;11.29;76.93;101453.59;4206504;28;20032;-66
2023/10/07 03:14:24;;;;;;;17.40;9.27;;;;;;;11.30;77.30;101456.25;4214123;28;20035;-67
2023/10/07 03:16:28;;;;;;;21.35;10.23;;;;;;;11.31;76.62;101457.13;4208946;28;20115;-68
2023/10/07 03:18:31;;;;;;;18.13;9.80;;;;;;;11.29;76.76;101456.22;4212004;28;20127;-66
2023/10/07 03:20:47;;;;;;;21.25;10.00;;;;;;;11.30;76.76;101440.63;4211276;28;20503;-67
2023/10/07 03:25:16;;;;;;;21.65;10.05;;;;;;;11.23;76.55;101448.22;4212662;28;20379;-67
2023/10/07 03:27:25;;;;;;;19.48;10.38;;;;;;;11.21;76.47;101444.69;4210037;28;20036;-67
2023/10/07 03:29:30;;;;;;;24.70;11.82;;;;;;;11.24;75.88;101439.56;4207327;28;20466;-66
2023/10/07 03:31:47;;;;;;;19.20;10.10;;;;;;;11.15;76.44;101451.47;4211969;28;20539;-67
2023/10/07 03:33:51;;;;;;;14.57;8.98;;;;;;;11.09;76.40;101455.66;4213614;28;20097;-66
2023/10/07 03:36:09;;;;;;;19.25;10.15;;;;;;;11.12;76.97;101455.72;4213304;28;20036;-69
2023/10/07 03:38:11;;;;;;;27.13;11.25;;;;;;;11.10;76.88;101449.63;4209094;28;20040;-67
2023/10/07 03:40:25;;;;;;;22.85;10.52;;;;;;;11.10;76.87;101447.88;4213273;28;20055;-67
2023/10/07 03:42:28;;;;;;;21.70;10.95;;;;;;;11.10;77.12;101440.06;4213324;28;20032;-67
2023/10/07 03:44:32;;;;;;;23.80;11.68;;;;;;;11.09;76.53;101451.31;4213407;28;20042;-66
2023/10/07 03:46:38;;;;;;;20.48;10.15;;;;;;;11.07;77.03;101447.81;4213420;28;20159;-67
2023/10/07 03:48:43;;;;;;;22.15;11.75;;;;;;;11.05;76.85;101454.66;4213197;28;20545;-67
2023/10/07 03:50:48;;;;;;;19.77;10.43;;;;;;;11.07;76.73;101452.09;4213074;28;20532;-66
2023/10/07 03:52:51;;;;;;;25.25;11.68;;;;;;;11.04;76.99;101452.91;4209967;28;20063;-66
2023/10/07 03:54:56;;;;;;;16.50;9.75;;;;;;;11.05;77.29;101454.66;4212754;28;20040;-67
2023/10/07 03:57:00;;;;;;;21.25;10.23;;;;;;;11.03;76.79;101461.56;4213103;28;20051;-67
2023/10/07 03:59:05;;;;;;;17.90;10.02;;;;;;;11.07;76.59;101459.91;4213129;28;20028;-68
2023/10/07 04:01:16;;;;;;;18.02;10.30;;;;;;;11.05;76.41;101459.88;4212745;28;20067;-67
2023/10/07 04:03:23;;;;;;;19.98;10.48;;;;;;;11.06;76.91;101474.66;4211279;28;20036;-67
2023/10/07 04:05:31;;;;;;;22.15;11.85;;;;;;;11.03;77.01;101481.50;4213053;28;20064;-67
2023/10/07 04:07:34;;;;;;;20.08;9.70;;;;;;;11.00;76.80;101477.97;4212544;28;20444;-66
2023/10/07 04:09:37;;;;;;;21.20;11.23;;;;;;;11.02;76.79;101474.53;4213127;28;20115;-66
2023/10/07 04:11:48;;;;;;;22.92;11.60;;;;;;;11.04;77.29;101473.75;4212471;28;20032;-67
2023/10/07 04:13:53;;;;;;;22.05;11.77;;;;;;;11.01;77.07;101484.06;4212696;28;20097;-66
2023/10/07 04:15:57;;;;;;;19.33;11.05;;;;;;;11.00;77.05;101482.28;4212766;28;20040;-67
2023/10/07 04:18:00;;;;;;;18.15;11.25;;;;;;;11.02;76.67;101490.13;4212756;28;20044;-67
2023/10/07 04:20:18;;;;;;;19.80;10.75;;;;;;;11.02;77.03;101475.41;4212702;28;20134;-66
2023/10/07 04:22:24;;;;;;;20.50;10.40;;;;;;;11.03;76.76;101473.69;4211278;28;20524;-66
2023/10/07 04:24:28;;;;;;;18.73;11.25;;;;;;;11.04;76.87;101459.81;4212627;28;20101;-66
2023/10/07 04:26:33;;;;;;;20.33;10.52;;;;;;;11.01;77.55;101473.66;4210574;28;20079;-66
2023/10/07 04:28:36;;;;;;;22.77;11.93;;;;;;;10.99;77.49;101462.31;4212419;28;20086;-66
2023/10/07 04:30:39;;;;;;;21.20;12.40;;;;;;;10.99;77.37;101462.31;4212274;28;20036;-67
2023/10/07 04:32:52;;;;;;;21.98;11.90;;;;;;;10.99;77.49;101460.59;4214913;28;20432;-67
2023/10/07 04:35:16;;;;;;;21.17;11.23;;;;;;;11.06;77.06;101468.56;4213906;28;20497;-67
2023/10/07 04:37:29;;;;;;;25.20;11.63;;;;;;;11.08;76.52;101469.50;4215996;28;20460;-66
2023/10/07 04:39:37;;;;;;;17.67;9.88;;;;;;;11.05;76.12;101465.06;4214725;28;20048;-67
2023/10/07 04:41:43;;;;;;;22.00;12.80;;;;;;;10.98;76.89;101461.44;4216023;28;20070;-67
2023/10/07 04:43:49;;;;;;;20.25;11.95;;;;;;;11.01;76.55;101471.06;4215905;28;20050;-67
2023/10/07 04:45:53;;;;;;;24.75;12.00;;;;;;;10.92;76.87;101473.38;4214206;28;20046;-67
2023/10/07 04:47:57;;;;;;;20.23;10.40;;;;;;;10.85;77.15;101466.22;4197522;28;20047;-67
2023/10/07 04:50:08;;;;;;;19.80;10.68;;;;;;;10.82;76.85;101462.72;4215499;28;20331;-68
2023/10/07 04:52:11;;;;;;;18.95;10.15;;;;;;;10.82;77.20;101469.63;4213377;28;20070;-66
2023/10/07 04:54:21;;;;;;;20.40;11.07;;;;;;;10.82;77.61;101465.31;4212435;28;20032;-67
2023/10/07 04:56:25;;;;;;;23.63;10.93;;;;;;;10.82;77.31;101454.03;4212534;28;20453;-66
2023/10/07 04:58:29;;;;;;;17.83;10.38;;;;;;;10.81;77.45;101450.53;4215933;28;20501;-67
2023/10/07 05:00:36;;;;;;;19.80;11.35;;;;;;;10.82;77.67;101456.63;4215620;28;20031;-65
2023/10/07 05:02:39;;;;;;;25.70;11.25;;;;;;;10.82;77.68;101447.09;4215941;28;20070;-67
2023/10/07 05:04:49;;;;;;;23.48;11.07;;;;;;;10.82;77.20;101449.69;4215669;28;20116;-67
2023/10/07 05:06:53;;;;;;;20.73;10.98;;;;;;;10.81;77.32;101440.13;4214652;28;20036;-67
2023/10/07 05:08:55;;;;;;;21.15;10.05;;;;;;;10.81;77.60;101434.06;4215641;28;20070;-68
2023/10/07 05:11:06;;;;;;;18.80;9.95;;;;;;;10.86;77.61;101447.19;4214290;28;20044;-67
2023/10/07 05:13:09;;;;;;;21.50;10.80;;;;;;;10.85;78.03;101445.41;4215552;28;20106;-67
2023/10/07 05:15:13;;;;;;;21.42;9.77;;;;;;;10.83;78.26;101441.06;4215121;28;20039;-67
2023/10/07 05:17:16;;;;;;;18.50;9.75;;;;;;;10.87;77.32;101436.81;4215056;28;20512;-67
2023/10/07 05:19:24;;;;;;;21.00;9.90;;;;;;;10.85;78.01;101440.22;4215344;28;20036;-67
2023/10/07 05:21:27;;;;;;;15.38;9.05;;;;;;;10.83;78.29;101443.66;4215451;28;20029;-66
2023/10/07 05:23:29;;;;;;;16.17;8.93;;;;;;;10.86;77.67;101441.97;4216139;28;20126;-67
2023/10/07 05:25:35;;;;;;;18.83;8.75;;;;;;;10.87;78.30;101443.75;4215290;28;20032;-67
2023/10/07 05:27:40;;;;;;;19.45;9.35;;;;;;;10.80;77.75;101450.47;4215206;28;20031;-67
2023/10/07 05:29:45;;;;;;;17.58;8.68;;;;;;;10.79;78.32;101452.22;4215260;28;20126;-66
2023/10/07 05:31:48;;;;;;;16.10;8.10;;;;;;;10.79;78.09;101456.50;4215208;28;20036;-66
2023/10/07 05:33:51;;;;;;;16.33;8.85;;;;;;;10.88;78.01;101461.09;4215192;28;20209;-67
2023/10/07 05:35:59;;;;;;;19.77;9.27;;;;;;;10.97;77.19;101456.19;4215619;28;20046;-66
2023/10/07 05:38:04;;;;;;;16.67;8.23;;;;;;;10.98;77.07;101458.81;4215193;28;20440;-67
2023/10/07 05:40:13;;;;;;;17.40;9.48;;;;;;;10.95;77.46;101466.56;4210846;28;20458;-67
2023/10/07 05:42:16;;;;;;;15.88;8.85;;;;;;;11.03;77.70;101476.31;4213818;28;20517;-67
2023/10/07 05:44:20;;;;;;;16.17;8.85;;;;;;;11.10;77.21;101479.09;4213625;28;20075;-67
2023/10/07 05:46:23;;;;;;;15.77;8.00;;;;;;;11.14;76.90;101478.38;4214903;28;20540;-66
2023/10/07 05:48:26;;;;;;;16.17;8.82;;;;;;;11.23;76.60;101475.13;4214869;28;20043;-67
2023/10/07 05:50:32;;;;;;;14.50;8.38;;;;;;;11.29;76.77;101469.22;4215181;28;20039;-67
2023/10/07 05:52:35;;;;;;;20.25;7.90;;;;;;;11.29;77.10;101470.09;4213783;28;20040;-67
2023/10/07 05:54:38;;;;;;;15.75;9.63;;;;;;;11.34;77.31;101462.41;4213358;28;20082;-67
2023/10/07 05:56:42;;;;;;;17.95;9.60;;;;;;;11.38;76.79;101461.66;4213837;28;20493;-67
2023/10/07 05:58:46;;;;;;;17.52;8.52;;;;;;;11.37;77.02;101459.00;4214810;28;20040;-66
2023/10/07 06:00:51;;;;;;;17.75;9.45;;;;;;;11.38;76.64;101472.06;4214535;28;20132;-67
2023/10/07 06:02:55;;;;;;;15.68;7.97;;;;;;;11.42;76.94;101467.81;4214797;28;20035;-68
2023/10/07 06:04:59;;;;;;;16.43;8.07;;;;;;;11.45;77.24;101471.41;4214765;28;20067;-67
2023/10/07 06:07:02;;;;;;;14.88;8.10;;;;;;;11.55;76.84;101469.03;4214575;28;20047;-68
2023/10/07 06:09:05;;;;;;;14.85;7.97;;;;;;;11.51;76.33;101466.34;4214913;28;20032;-67
2023/10/07 06:11:10;;;;;;;15.88;8.38;;;;;;;11.47;76.06;101477.50;4214562;28;20127;-67
2023/10/07 06:13:15;;;;;;;16.50;8.25;;;;;;;11.44;76.40;101485.25;4214628;28;20039;-66
2023/10/07 06:15:18;;;;;;;14.70;8.60;;;;;;;11.44;76.89;101486.97;4213449;28;20490;-67
2023/10/07 06:17:25;;;;;;;15.00;7.28;;;;;;;11.47;76.20;101485.31;4210409;28;20032;-66
2023/10/07 06:19:28;;;;;;;15.93;8.05;;;;;;;11.51;76.92;101474.16;4214315;28;20478;-67
2023/10/07 06:21:31;;;;;;;20.52;9.00;;;;;;;11.59;76.54;101473.47;4214272;28;20047;-66
2023/10/07 06:23:36;;;;;;;18.05;8.25;;;;;;;11.64;76.28;101467.56;4214538;28;20481;-66
2023/10/07 06:25:41;;;;;;;18.20;8.98;;;;;;;11.61;76.46;101475.28;4214645;28;20128;-66
2023/10/07 06:27:44;;;;;;;;;;;;;;;11.63;75.94;101472.72;4213394;28;20040;-66
2023/10/07 06:29:48;;;;;;;17.23;7.18;;;;;;;11.49;76.09;101472.34;4213091;28;20398;-68
2023/10/07 06:31:55;;;;;;;14.95;8.25;;;;;;;11.50;76.33;101475.00;4212904;28;20036;-68
2023/10/07 06:34:11;;;;;;;18.80;8.00;;;;;;;11.57;76.03;101459.56;4210918;28;20040;-68
2023/10/07 06:36:18;;;;;;;15.35;8.27;;;;;;;11.51;76.72;101463.75;4211950;28;20089;-67
2023/10/07 06:38:22;;;;;;;15.60;8.05;;;;;;;11.57;76.52;101462.16;4208628;28;20593;-67
2023/10/07 06:40:28;;;;;;;17.55;8.80;;;;;;;11.60;76.95;101457.03;4210595;28;20028;-67
2023/10/07 06:42:31;;;;;;;17.55;8.63;;;;;;;11.66;77.02;101457.19;4212926;28;20135;-67
2023/10/07 06:44:34;;;;;;;16.92;9.40;;;;;;;11.75;76.63;101462.59;4212086;28;20028;-66
2023/10/07 06:46:41;;;;;;;23.23;12.60;;;;;;;11.94;79.07;101468.31;4210646;28;20040;-66
2023/10/07 06:48:48;;;;;;;25.42;11.25;;;;;;;12.28;78.60;101467.44;4205379;28;20046;-66
2023/10/07 06:50:53;;;;;;;20.42;10.55;;;;;;;12.48;77.57;101464.38;4212314;28;20580;-65
2023/10/07 06:52:56;;;;;;;21.50;10.50;;;;;;;12.68;77.48;101468.31;4211313;28;20051;-66
2023/10/07 06:55:02;;;;;;;17.33;8.90;;;;;;;12.81;74.98;101479.91;4210778;28;20032;-65
2023/10/07 06:57:13;;;;;;;17.35;7.97;;;;;;;12.83;74.97;101480.81;4212470;28;20071;-65
2023/10/07 06:59:16;;;;;;;14.95;8.32;;;;;;;12.98;75.20;101476.75;4210941;28;20029;-65
2023/10/07 07:01:22;;;;;;;12.45;6.28;;;;;;;13.02;74.21;101470.75;4213028;28;20401;-66
2023/10/07 07:03:27;;;;;;;14.30;7.75;;;;;;;12.97;73.04;101461.97;4210088;28;20438;-67
2023/10/07 07:05:35;;;;;;;16.40;6.93;;;;;;;12.90;73.92;101466.16;4211147;28;20040;-66
2023/10/07 07:07:39;;;;;;;16.13;7.13;;;;;;;12.86;73.10;101467.81;4213004;28;20040;-66
2023/10/07 07:09:58;;;;;;;12.55;6.50;;;;;;;12.77;73.35;101467.63;4206391;28;20040;-67
2023/10/07 07:12:03;;;;;;;16.45;8.10;;;;;;;12.70;73.84;101478.78;4211341;28;20032;-66
2023/10/07 07:14:08;;;;;;;12.82;7.20;;;;;;;12.66;74.26;101479.56;4211773;28;20031;-62
2023/10/07 07:16:13;;;;;;;14.60;6.93;;;;;;;12.69;74.21;101477.03;4212111;28;20123;-65
2023/10/07 07:18:16;;;;;;;17.77;6.93;;;;;;;12.67;74.53;101478.72;4212007;28;20028;-65
2023/10/07 07:20:29;;;;;;;15.77;7.18;;;;;;;12.75;74.01;101485.00;4208101;28;20044;-65
2023/10/07 07:22:33;;;;;;;12.73;6.45;;;;;;;12.77;73.96;101483.28;4211904;28;20063;-64
2023/10/07 07:24:37;;;;;;;15.63;6.88;;;;;;;12.70;74.25;101491.81;4212741;28;20089;-65
2023/10/07 07:26:39;;;;;;;17.70;7.55;;;;;;;12.68;74.33;101488.31;4209536;28;20512;-66
2023/10/07 07:28:43;;;;;;;15.30;7.13;;;;;;;12.67;74.15;101486.53;4210442;28;20725;-65
2023/10/07 07:30:46;;;;;;;10.93;6.17;;;;;;;12.65;74.65;101483.91;4211091;28;20032;-64
2023/10/07 07:32:55;;;;;;;13.50;6.57;;;;;;;12.69;74.36;101480.53;4213642;22;20307;-67
2023/10/07 07:35:02;;;;;;;15.43;6.72;;;;;;;12.80;74.62;101480.72;4176218;28;20063;-67
2023/10/07 07:37:06;;;;;;;16.00;7.53;;;;;;;12.91;74.42;101489.69;4179149;28;20037;-67
2023/10/07 07:39:10;;;;;;;14.52;6.75;;;;;;;12.87;74.23;101490.47;4179337;28;20037;-66
2023/10/07 07:41:29;;;;;;;13.93;6.43;;;;;;;12.89;74.50;101493.09;4179007;28;20087;-67
2023/10/07 07:43:33;;;;;;;11.52;6.03;;;;;;;12.97;74.12;101480.22;4179516;28;20043;-68
2023/10/07 07:45:37;;;;;;;17.38;7.22;;;;;;;13.05;74.05;101491.69;4178007;28;20033;-66
2023/10/07 07:47:40;;;;;;;13.07;6.10;;;;;;;13.11;74.23;101499.66;4177342;28;20120;-66
2023/10/07 07:49:43;;;;;;;12.30;6.85;;;;;;;13.18;73.80;101495.44;4175140;28;20170;-66
2023/10/07 07:51:47;;;;;;;15.52;6.82;;;;;;;13.30;73.93;101502.63;4178439;28;20104;-66
2023/10/07 07:53:50;;;;;;;17.38;7.72;;;;;;;13.24;74.02;101506.91;4178655;28;20129;-66
2023/10/07 07:55:56;;;;;;;15.73;7.30;;;;;;;13.28;73.88;101503.47;4178540;28;20059;-66
2023/10/07 07:58:02;;;;;;;14.90;7.07;;;;;;;13.36;73.71;101508.00;4178210;28;20044;-66
2023/10/07 08:00:09;;;;;;;14.60;6.57;;;;;;;13.32;73.82;101512.28;4177010;28;20410;-66
2023/10/07 08:02:13;;;;;;;15.02;6.35;;;;;;;13.39;73.23;101506.34;4175477;28;20051;-66
2023/10/07 08:04:17;;;;;;;14.25;6.38;;;;;;;13.36;73.38;101510.63;4178672;28;20037;-66
2023/10/07 08:06:21;;;;;;;13.88;5.60;;;;;;;13.42;73.93;101506.41;4178860;28;20048;-66
2023/10/07 08:08:25;;;;;;;16.95;6.43;;;;;;;13.44;73.92;101507.31;4178989;28;20033;-66
2023/10/07 08:10:29;;;;;;;12.80;6.47;;;;;;;13.46;74.00;101504.72;4175795;28;20055;-66
2023/10/07 08:12:34;;;;;;;11.25;6.25;;;;;;;13.48;74.10;101505.66;4179348;28;20057;-66
2023/10/07 08:14:38;;;;;;;16.98;6.47;;;;;;;13.46;73.30;101520.41;4178206;28;20499;-66
2023/10/07 08:16:50;;;;;;;12.75;6.10;;;;;;;13.51;73.13;101510.94;4179523;28;20407;-66
2023/10/07 08:18:56;;;;;;;11.43;6.10;;;;;;;13.54;73.38;101526.66;4178398;28;20044;-66
2023/10/07 08:21:07;;;;;;;12.75;5.85;;;;;;;13.63;73.19;101531.19;4179322;28;20407;-66
2023/10/07 08:23:21;;;;;;;11.45;6.25;;;;;;;13.61;72.64;101525.06;4179217;28;20045;-67
2023/10/07 08:25:37;;;;;;;13.57;6.03;;;;;;;13.67;73.01;101534.72;4177676;28;20044;-66
2023/10/07 08:27:49;;;;;;;15.40;6.10;;;;;;;13.71;72.68;101533.94;4179201;28;20097;-66
2023/10/07 08:29:55;;;;;;;12.32;5.88;;;;;;;13.69;72.87;101536.50;4179450;28;20037;-66
2023/10/07 08:31:59;;;;;;;12.93;6.07;;;;;;;13.77;72.89;101531.44;4161686;28;20549;-66
2023/10/07 08:34:09;;;;;;;12.40;5.80;;;;;;;13.88;73.15;101524.66;4172305;28;20565;-66
2023/10/07 08:36:13;;;;;;;13.30;6.38;;;;;;;13.93;73.44;101519.50;4176578;28;20657;-66
2023/10/07 08:38:29;;;;;;;14.40;6.93;;;;;;;13.94;72.83;101534.34;4177796;28;20063;-66
2023/10/07 08:40:43;;;;;;;14.77;6.57;;;;;;;14.13;71.58;101528.59;4176939;28;20037;-66
2023/10/07 08:42:48;;;;;;;15.20;6.15;;;;;;;13.95;72.42;101537.00;4178084;28;20040;-66
2023/10/07 08:44:52;;;;;;;12.43;5.82;;;;;;;13.95;72.28;101539.59;4179126;28;20033;-66
2023/10/07 08:47:03;;;;;;;14.05;6.53;;;;;;;14.05;72.09;101537.16;4177535;28;20040;-66
2023/10/07 08:49:13;;;;;;;11.77;5.80;;;;;;;14.15;71.30;101544.31;4177817;28;20536;-67
2023/10/07 08:51:21;;;;;;;13.65;5.90;;;;;;;14.21;72.08;101544.41;4176158;28;20055;-67
2023/10/07 08:53:24;;;;;;;19.58;7.80;;;;;;;14.15;70.78;101541.69;4176395;28;20047;-67
2023/10/07 08:55:28;;;;;;;14.05;5.85;;;;;;;14.29;70.33;101545.44;4176032;28;20140;-66
2023/10/07 08:57:34;;;;;;;13.07;5.80;;;;;;;14.31;70.53;101554.16;4175042;28;20033;-66
2023/10/07 08:59:37;;;;;;;13.02;6.25;;;;;;;14.40;71.30;101547.34;4176180;28;20060;-66
2023/10/07 09:01:43;;;;;;;13.95;6.20;;;;;;;14.46;71.38;101539.56;4178225;28;20044;-66
2023/10/07 09:03:49;;;;;;;13.93;6.72;;;;;;;14.57;70.26;101545.88;4177722;28;20032;-66
2023/10/07 09:05:55;;;;;;;12.13;6.50;;;;;;;14.57;69.65;101544.97;4177050;28;20040;-66
2023/10/07 09:07:58;;;;;;;13.07;5.72;;;;;;;14.61;69.57;101545.06;4176214;28;20049;-66
2023/10/07 09:10:10;;;;;;;12.07;6.22;;;;;;;14.72;69.58;101539.09;4178100;28;20096;-66
2023/10/07 09:12:15;;;;;;;10.20;5.43;;;;;;;14.81;69.99;101550.59;4177634;28;20041;-66
2023/10/07 09:14:18;;;;;;;12.07;6.57;;;;;;;14.94;68.58;101545.56;4177751;28;20031;-66
2023/10/07 09:16:24;;;;;;;10.57;5.55;;;;;;;14.98;68.58;101548.22;4176582;28;20037;-66
2023/10/07 09:18:28;;;;;;;13.13;6.15;;;;;;;15.07;69.53;101546.56;4180268;28;20140;-66
2023/10/07 09:20:43;;;;;;;12.38;5.95;;;;;;;15.12;68.17;101544.91;4179221;28;20088;-66
2023/10/07 09:22:53;;;;;;;13.52;5.78;;;;;;;15.17;68.12;101543.19;4180915;28;20418;-66
2023/10/07 09:25:09;;;;;;;13.48;6.50;;;;;;;15.22;67.78;101545.91;4180278;28;20090;-66
2023/10/07 09:27:13;;;;;;;;;;;;;;;15.38;68.29;101547.84;4178142;28;20067;-66
2023/10/07 09:29:21;;;;;;;12.73;5.80;;;;;;;15.49;68.00;101542.72;4178070;28;20355;-67
2023/10/07 09:31:26;;;;;;;13.35;5.50;;;;;;;15.68;67.56;101538.56;4180236;28;20045;-66
2023/10/07 09:33:35;;;;;;;;;;;;;;;15.92;66.81;101537.09;4180289;28;20081;-66
2023/10/07 09:35:42;;;;;;;11.13;5.15;;;;;;;15.98;66.23;101535.38;4180535;28;19935;-66
2023/10/07 09:37:45;;;;;;;10.25;5.25;;;;;;;15.95;66.13;101538.00;4179677;28;20051;-66
2023/10/07 09:39:55;;;;;;;12.57;5.88;;;;;;;16.09;65.44;101531.97;4180733;28;20621;-67
2023/10/07 09:42:04;;;;;;;10.30;5.70;;;;;;;16.25;65.44;101528.63;4192063;28;20040;-66